sensor_id;sensor_type;location;lat;lon;timestamp;P1;durP1;ratioP1;P2;durP2;ratioP2
75542;SDS011;64129;53.508;10.476;2023-09-12T00:02:10;12.52;;;9.75;;
75542;SDS011;64129;53.508;10.476;2023-09-12T00:04:40;13.77;;;10.57;;
75542;SDS011;64129;53.508;10.476;2023-09-12T00:07:07;14.70;;;10.85;;
75542;SDS011;64129;53.508;10.476;2023-09-12T00:09:38;13.70;;;10.07;;
75542;SDS011;64129;53.508;10.476;2023-09-12T00:12:05;13.52;;;9.90;;
75542;SDS011;64129;53.508;10.476;2023-09-12T00:14:32;14.40;;;11.23;;
75542;SDS011;64129;53.508;10.476;2023-09-12T00:16:59;10.93;;;9.82;;
75542;SDS011;64129;53.508;10.476;2023-09-12T00:19:40;13.75;;;10.75;;
75542;SDS011;64129;53.508;10.476;2023-09-12T00:22:11;11.90;;;9.30;;
75542;SDS011;64129;53.508;10.476;2023-09-12T00:24:38;13.25;;;9.40;;
75542;SDS011;64129;53.508;10.476;2023-09-12T00:27:05;14.30;;;10.23;;
75542;SDS011;64129;53.508;10.476;2023-09-12T00:29:35;13.23;;;10.45;;
75542;SDS011;64129;53.508;10.476;2023-09-12T00:32:02;15.50;;;10.27;;
75542;SDS011;64129;53.508;10.476;2023-09-12T00:34:33;14.00;;;9.95;;
75542;SDS011;64129;53.508;10.476;2023-09-12T00:37:00;16.27;;;11.55;;
75542;SDS011;64129;53.508;10.476;2023-09-12T00:39:38;11.55;;;9.32;;
75542;SDS011;64129;53.508;10.476;2023-09-12T00:42:05;11.25;;;9.95;;
75542;SDS011;64129;53.508;10.476;2023-09-12T00:44:43;14.82;;;10.23;;
75542;SDS011;64129;53.508;10.476;2023-09-12T00:47:18;15.00;;;9.63;;
75542;SDS011;64129;53.508;10.476;2023-09-12T00:49:56;14.18;;;10.48;;
75542;SDS011;64129;53.508;10.476;2023-09-12T00:52:30;12.60;;;10.02;;
75542;SDS011;64129;53.508;10.476;2023-09-12T00:55:06;16.25;;;12.80;;
75542;SDS011;64129;53.508;10.476;2023-09-12T00:57:40;15.52;;;10.05;;
75542;SDS011;64129;53.508;10.476;2023-09-12T01:00:11;16.90;;;13.65;;
75542;SDS011;64129;53.508;10.476;2023-09-12T01:02:42;19.77;;;14.25;;
75542;SDS011;64129;53.508;10.476;2023-09-12T01:05:28;16.25;;;12.77;;
75542;SDS011;64129;53.508;10.476;2023-09-12T01:08:09;20.75;;;14.13;;
75542;SDS011;64129;53.508;10.476;2023-09-12T01:13:16;23.20;;;16.77;;
75542;SDS011;64129;53.508;10.476;2023-09-12T01:15:57;25.88;;;17.80;;
75542;SDS011;64129;53.508;10.476;2023-09-12T01:18:30;18.75;;;15.00;;
75542;SDS011;64129;53.508;10.476;2023-09-12T01:30:11;26.27;;;19.27;;
75542;SDS011;64129;53.508;10.476;2023-09-12T01:32:53;26.27;;;19.65;;
75542;SDS011;64129;53.508;10.476;2023-09-12T01:35:24;29.65;;;21.52;;
75542;SDS011;64129;53.508;10.476;2023-09-12T01:38:05;25.85;;;19.13;;
75542;SDS011;64129;53.508;10.476;2023-09-12T01:40:51;27.20;;;19.95;;
75542;SDS011;64129;53.508;10.476;2023-09-12T01:43:36;28.00;;;19.80;;
75542;SDS011;64129;53.508;10.476;2023-09-12T01:46:13;29.30;;;20.33;;
75542;SDS011;64129;53.508;10.476;2023-09-12T01:48:48;23.52;;;18.88;;
75542;SDS011;64129;53.508;10.476;2023-09-12T01:51:29;25.50;;;19.13;;
75542;SDS011;64129;53.508;10.476;2023-09-12T01:54:00;26.55;;;19.52;;
75542;SDS011;64129;53.508;10.476;2023-09-12T01:56:30;27.88;;;20.48;;
75542;SDS011;64129;53.508;10.476;2023-09-12T01:59:02;27.30;;;20.25;;
75542;SDS011;64129;53.508;10.476;2023-09-12T02:01:35;21.42;;;17.60;;
75542;SDS011;64129;53.508;10.476;2023-09-12T02:04:02;27.35;;;19.92;;
75542;SDS011;64129;53.508;10.476;2023-09-12T02:06:39;27.30;;;19.10;;
75542;SDS011;64129;53.508;10.476;2023-09-12T02:09:16;26.70;;;19.88;;
75542;SDS011;64129;53.508;10.476;2023-09-12T02:11:56;28.13;;;19.98;;
75542;SDS011;64129;53.508;10.476;2023-09-12T02:14:23;29.42;;;20.90;;
75542;SDS011;64129;53.508;10.476;2023-09-12T02:17:26;29.10;;;21.65;;
75542;SDS011;64129;53.508;10.476;2023-09-12T02:19:56;29.23;;;21.77;;
75542;SDS011;64129;53.508;10.476;2023-09-12T02:22:31;29.27;;;22.00;;
75542;SDS011;64129;53.508;10.476;2023-09-12T02:25:17;31.02;;;21.65;;
75542;SDS011;64129;53.508;10.476;2023-09-12T02:32:00;37.35;;;24.55;;
75542;SDS011;64129;53.508;10.476;2023-09-12T02:34:36;31.55;;;25.00;;
75542;SDS011;64129;53.508;10.476;2023-09-12T02:37:06;35.55;;;25.23;;
75542;SDS011;64129;53.508;10.476;2023-09-12T02:39:33;34.75;;;24.63;;
75542;SDS011;64129;53.508;10.476;2023-09-12T02:42:09;33.92;;;24.33;;
75542;SDS011;64129;53.508;10.476;2023-09-12T02:44:36;31.10;;;21.73;;
75542;SDS011;64129;53.508;10.476;2023-09-12T02:47:11;29.55;;;21.60;;
75542;SDS011;64129;53.508;10.476;2023-09-12T02:49:42;33.95;;;23.65;;
75542;SDS011;64129;53.508;10.476;2023-09-12T02:52:09;35.50;;;25.58;;
75542;SDS011;64129;53.508;10.476;2023-09-12T02:54:38;38.38;;;27.17;;
75542;SDS011;64129;53.508;10.476;2023-09-12T02:57:05;48.17;;;29.33;;
75542;SDS011;64129;53.508;10.476;2023-09-12T02:59:41;52.17;;;32.67;;
75542;SDS011;64129;53.508;10.476;2023-09-12T03:02:24;55.00;;;33.20;;
75542;SDS011;64129;53.508;10.476;2023-09-12T03:04:55;41.50;;;27.63;;
75542;SDS011;64129;53.508;10.476;2023-09-12T03:07:27;42.78;;;27.30;;
75542;SDS011;64129;53.508;10.476;2023-09-12T03:09:58;47.08;;;29.92;;
75542;SDS011;64129;53.508;10.476;2023-09-12T03:12:42;52.53;;;34.92;;
75542;SDS011;64129;53.508;10.476;2023-09-12T03:15:13;47.22;;;31.38;;
75542;SDS011;64129;53.508;10.476;2023-09-12T03:17:49;52.15;;;32.00;;
75542;SDS011;64129;53.508;10.476;2023-09-12T03:20:16;47.80;;;29.75;;
75542;SDS011;64129;53.508;10.476;2023-09-12T03:22:53;45.60;;;29.02;;
75542;SDS011;64129;53.508;10.476;2023-09-12T03:25:35;52.05;;;31.75;;
75542;SDS011;64129;53.508;10.476;2023-09-12T03:28:08;56.47;;;33.10;;
75542;SDS011;64129;53.508;10.476;2023-09-12T03:30:38;57.97;;;35.25;;
75542;SDS011;64129;53.508;10.476;2023-09-12T03:33:12;50.78;;;31.35;;
75542;SDS011;64129;53.508;10.476;2023-09-12T03:35:42;52.00;;;32.90;;
75542;SDS011;64129;53.508;10.476;2023-09-12T03:38:22;54.28;;;31.48;;
75542;SDS011;64129;53.508;10.476;2023-09-12T03:40:49;41.45;;;28.85;;
75542;SDS011;64129;53.508;10.476;2023-09-12T03:43:19;52.60;;;30.77;;
75542;SDS011;64129;53.508;10.476;2023-09-12T03:45:51;52.75;;;31.40;;
75542;SDS011;64129;53.508;10.476;2023-09-12T03:48:21;51.00;;;30.65;;
75542;SDS011;64129;53.508;10.476;2023-09-12T03:50:50;53.90;;;33.25;;
75542;SDS011;64129;53.508;10.476;2023-09-12T03:53:20;56.42;;;34.55;;
75542;SDS011;64129;53.508;10.476;2023-09-12T03:55:51;59.70;;;34.63;;
75542;SDS011;64129;53.508;10.476;2023-09-12T03:58:20;50.33;;;33.22;;
75542;SDS011;64129;53.508;10.476;2023-09-12T04:00:54;54.55;;;30.55;;
75542;SDS011;64129;53.508;10.476;2023-09-12T04:03:21;52.03;;;29.10;;
75542;SDS011;64129;53.508;10.476;2023-09-12T04:05:50;41.60;;;26.70;;
75542;SDS011;64129;53.508;10.476;2023-09-12T04:08:21;43.70;;;27.02;;
75542;SDS011;64129;53.508;10.476;2023-09-12T04:10:48;46.65;;;30.40;;
75542;SDS011;64129;53.508;10.476;2023-09-12T04:13:25;47.55;;;30.05;;
75542;SDS011;64129;53.508;10.476;2023-09-12T04:15:52;44.58;;;28.52;;
75542;SDS011;64129;53.508;10.476;2023-09-12T04:18:28;50.13;;;31.40;;
75542;SDS011;64129;53.508;10.476;2023-09-12T04:20:55;36.10;;;24.00;;
75542;SDS011;64129;53.508;10.476;2023-09-12T04:23:36;45.53;;;27.23;;
75542;SDS011;64129;53.508;10.476;2023-09-12T04:26:03;43.97;;;28.77;;
75542;SDS011;64129;53.508;10.476;2023-09-12T04:28:30;45.53;;;27.40;;
75542;SDS011;64129;53.508;10.476;2023-09-12T04:31:11;46.80;;;30.10;;
75542;SDS011;64129;53.508;10.476;2023-09-12T04:33:43;39.85;;;26.25;;
75542;SDS011;64129;53.508;10.476;2023-09-12T04:36:10;44.45;;;26.27;;
75542;SDS011;64129;53.508;10.476;2023-09-12T04:38:37;41.75;;;28.73;;
75542;SDS011;64129;53.508;10.476;2023-09-12T04:43:54;45.60;;;28.13;;
75542;SDS011;64129;53.508;10.476;2023-09-12T04:46:25;45.90;;;28.58;;
75542;SDS011;64129;53.508;10.476;2023-09-12T04:48:52;47.17;;;27.20;;
75542;SDS011;64129;53.508;10.476;2023-09-12T04:51:27;44.53;;;27.52;;
75542;SDS011;64129;53.508;10.476;2023-09-12T04:53:54;48.90;;;29.10;;
75542;SDS011;64129;53.508;10.476;2023-09-12T04:56:22;44.17;;;27.30;;
75542;SDS011;64129;53.508;10.476;2023-09-12T04:58:52;49.75;;;29.30;;
75542;SDS011;64129;53.508;10.476;2023-09-12T05:01:19;40.65;;;26.42;;
75542;SDS011;64129;53.508;10.476;2023-09-12T05:03:55;40.85;;;26.92;;
75542;SDS011;64129;53.508;10.476;2023-09-12T05:06:26;39.88;;;24.92;;
75542;SDS011;64129;53.508;10.476;2023-09-12T05:08:55;42.22;;;26.27;;
75542;SDS011;64129;53.508;10.476;2023-09-12T05:11:27;42.65;;;27.25;;
75542;SDS011;64129;53.508;10.476;2023-09-12T05:13:54;46.30;;;29.00;;
75542;SDS011;64129;53.508;10.476;2023-09-12T05:16:26;47.17;;;28.75;;
75542;SDS011;64129;53.508;10.476;2023-09-12T05:18:53;43.20;;;27.95;;
75542;SDS011;64129;53.508;10.476;2023-09-12T05:21:33;48.97;;;28.27;;
75542;SDS011;64129;53.508;10.476;2023-09-12T05:24:02;47.22;;;29.20;;
75542;SDS011;64129;53.508;10.476;2023-09-12T05:26:38;45.25;;;29.33;;
75542;SDS011;64129;53.508;10.476;2023-09-12T05:29:13;49.45;;;28.88;;
75542;SDS011;64129;53.508;10.476;2023-09-12T05:31:42;44.42;;;29.17;;
75542;SDS011;64129;53.508;10.476;2023-09-12T05:34:09;48.25;;;29.58;;
75542;SDS011;64129;53.508;10.476;2023-09-12T05:36:42;47.53;;;29.38;;
75542;SDS011;64129;53.508;10.476;2023-09-12T05:39:10;67.30;;;36.35;;
75542;SDS011;64129;53.508;10.476;2023-09-12T05:41:38;63.13;;;34.45;;
75542;SDS011;64129;53.508;10.476;2023-09-12T05:44:12;71.43;;;38.28;;
75542;SDS011;64129;53.508;10.476;2023-09-12T05:46:53;65.15;;;35.83;;
75542;SDS011;64129;53.508;10.476;2023-09-12T05:49:36;67.75;;;35.13;;
75542;SDS011;64129;53.508;10.476;2023-09-12T05:52:04;68.47;;;35.42;;
75542;SDS011;64129;53.508;10.476;2023-09-12T05:54:35;75.68;;;37.47;;
75542;SDS011;64129;53.508;10.476;2023-09-12T05:57:02;62.15;;;32.75;;
75542;SDS011;64129;53.508;10.476;2023-09-12T05:59:37;72.07;;;37.60;;
75542;SDS011;64129;53.508;10.476;2023-09-12T06:02:07;80.55;;;37.50;;
75542;SDS011;64129;53.508;10.476;2023-09-12T06:04:37;80.32;;;38.92;;
75542;SDS011;64129;53.508;10.476;2023-09-12T06:07:04;68.15;;;34.80;;
75542;SDS011;64129;53.508;10.476;2023-09-12T06:09:32;59.20;;;34.70;;
75542;SDS011;64129;53.508;10.476;2023-09-12T06:12:01;93.05;;;39.08;;
75542;SDS011;64129;53.508;10.476;2023-09-12T06:14:32;69.20;;;34.85;;
75542;SDS011;64129;53.508;10.476;2023-09-12T06:17:08;81.25;;;36.58;;
75542;SDS011;64129;53.508;10.476;2023-09-12T06:22:12;62.65;;;32.38;;
75542;SDS011;64129;53.508;10.476;2023-09-12T06:24:44;64.20;;;33.22;;
75542;SDS011;64129;53.508;10.476;2023-09-12T06:27:11;61.45;;;33.80;;
75542;SDS011;64129;53.508;10.476;2023-09-12T06:29:48;61.15;;;33.47;;
75542;SDS011;64129;53.508;10.476;2023-09-12T06:32:17;54.90;;;31.02;;
75542;SDS011;64129;53.508;10.476;2023-09-12T06:34:47;56.35;;;31.95;;
75542;SDS011;64129;53.508;10.476;2023-09-12T06:37:29;49.78;;;28.42;;
75542;SDS011;64129;53.508;10.476;2023-09-12T06:39:56;62.22;;;33.90;;
75542;SDS011;64129;53.508;10.476;2023-09-12T06:42:29;55.42;;;32.30;;
75542;SDS011;64129;53.508;10.476;2023-09-12T06:44:56;53.60;;;29.35;;
75542;SDS011;64129;53.508;10.476;2023-09-12T06:47:35;45.20;;;27.80;;
75542;SDS011;64129;53.508;10.476;2023-09-12T06:50:06;58.20;;;32.72;;
75542;SDS011;64129;53.508;10.476;2023-09-12T06:52:40;58.42;;;32.38;;
75542;SDS011;64129;53.508;10.476;2023-09-12T06:55:14;66.18;;;34.75;;
75542;SDS011;64129;53.508;10.476;2023-09-12T06:57:46;70.32;;;37.10;;
75542;SDS011;64129;53.508;10.476;2023-09-12T07:00:14;62.38;;;33.78;;
75542;SDS011;64129;53.508;10.476;2023-09-12T07:02:43;63.95;;;34.17;;
75542;SDS011;64129;53.508;10.476;2023-09-12T07:05:10;71.40;;;36.88;;
75542;SDS011;64129;53.508;10.476;2023-09-12T07:07:40;66.43;;;34.67;;
75542;SDS011;64129;53.508;10.476;2023-09-12T07:10:12;73.55;;;36.20;;
75542;SDS011;64129;53.508;10.476;2023-09-12T07:12:47;69.82;;;34.97;;
75542;SDS011;64129;53.508;10.476;2023-09-12T07:15:24;63.15;;;32.90;;
75542;SDS011;64129;53.508;10.476;2023-09-12T07:17:53;73.60;;;34.95;;
75542;SDS011;64129;53.508;10.476;2023-09-12T07:20:27;70.93;;;34.85;;
75542;SDS011;64129;53.508;10.476;2023-09-12T07:22:57;54.53;;;30.60;;
75542;SDS011;64129;53.508;10.476;2023-09-12T07:25:24;64.53;;;32.50;;
75542;SDS011;64129;53.508;10.476;2023-09-12T07:27:57;67.65;;;32.95;;
75542;SDS011;64129;53.508;10.476;2023-09-12T07:30:24;57.38;;;30.15;;
75542;SDS011;64129;53.508;10.476;2023-09-12T07:32:51;62.30;;;32.63;;
75542;SDS011;64129;53.508;10.476;2023-09-12T07:35:21;65.35;;;32.88;;
75542;SDS011;64129;53.508;10.476;2023-09-12T07:38:07;56.25;;;30.15;;
75542;SDS011;64129;53.508;10.476;2023-09-12T07:40:36;63.88;;;32.70;;
75542;SDS011;64129;53.508;10.476;2023-09-12T07:43:03;63.67;;;32.20;;
75542;SDS011;64129;53.508;10.476;2023-09-12T07:45:33;56.88;;;30.45;;
75542;SDS011;64129;53.508;10.476;2023-09-12T07:48:07;59.95;;;32.00;;
75542;SDS011;64129;53.508;10.476;2023-09-12T07:50:41;53.45;;;28.58;;
75542;SDS011;64129;53.508;10.476;2023-09-12T07:53:11;59.22;;;31.55;;
75542;SDS011;64129;53.508;10.476;2023-09-12T07:55:45;65.38;;;32.53;;
75542;SDS011;64129;53.508;10.476;2023-09-12T07:58:16;61.45;;;31.92;;
75542;SDS011;64129;53.508;10.476;2023-09-12T08:00:48;52.53;;;28.35;;
75542;SDS011;64129;53.508;10.476;2023-09-12T08:03:18;51.00;;;28.23;;
75542;SDS011;64129;53.508;10.476;2023-09-12T08:05:56;56.55;;;31.17;;
75542;SDS011;64129;53.508;10.476;2023-09-12T08:08:24;53.67;;;30.33;;
75542;SDS011;64129;53.508;10.476;2023-09-12T08:10:53;53.40;;;32.53;;
75542;SDS011;64129;53.508;10.476;2023-09-12T08:13:20;57.67;;;30.77;;
75542;SDS011;64129;53.508;10.476;2023-09-12T08:15:55;53.92;;;30.77;;
75542;SDS011;64129;53.508;10.476;2023-09-12T08:18:33;60.38;;;33.97;;
75542;SDS011;64129;53.508;10.476;2023-09-12T08:21:02;52.08;;;30.30;;
75542;SDS011;64129;53.508;10.476;2023-09-12T08:23:32;49.20;;;28.23;;
75542;SDS011;64129;53.508;10.476;2023-09-12T08:26:00;51.38;;;29.38;;
75542;SDS011;64129;53.508;10.476;2023-09-12T08:28:31;50.63;;;29.92;;
75542;SDS011;64129;53.508;10.476;2023-09-12T08:31:14;51.05;;;29.60;;
75542;SDS011;64129;53.508;10.476;2023-09-12T08:33:44;49.40;;;30.17;;
75542;SDS011;64129;53.508;10.476;2023-09-12T08:36:14;50.40;;;28.67;;
75542;SDS011;64129;53.508;10.476;2023-09-12T08:38:50;49.92;;;30.08;;
75542;SDS011;64129;53.508;10.476;2023-09-12T08:41:17;49.22;;;30.58;;
75542;SDS011;64129;53.508;10.476;2023-09-12T08:43:44;49.97;;;30.92;;
75542;SDS011;64129;53.508;10.476;2023-09-12T08:46:21;48.70;;;28.92;;
75542;SDS011;64129;53.508;10.476;2023-09-12T08:48:59;45.67;;;27.80;;
75542;SDS011;64129;53.508;10.476;2023-09-12T08:51:41;46.42;;;28.17;;
75542;SDS011;64129;53.508;10.476;2023-09-12T08:54:08;48.72;;;27.83;;
75542;SDS011;64129;53.508;10.476;2023-09-12T08:56:39;45.10;;;27.27;;
75542;SDS011;64129;53.508;10.476;2023-09-12T08:59:08;44.40;;;25.90;;
75542;SDS011;64129;53.508;10.476;2023-09-12T09:01:42;47.38;;;28.40;;
75542;SDS011;64129;53.508;10.476;2023-09-12T09:04:21;41.55;;;25.10;;
75542;SDS011;64129;53.508;10.476;2023-09-12T09:06:55;39.75;;;24.77;;
75542;SDS011;64129;53.508;10.476;2023-09-12T09:09:34;46.67;;;27.92;;
75542;SDS011;64129;53.508;10.476;2023-09-12T09:12:09;42.15;;;26.63;;
75542;SDS011;64129;53.508;10.476;2023-09-12T09:14:42;41.88;;;26.23;;
75542;SDS011;64129;53.508;10.476;2023-09-12T09:17:10;44.25;;;26.73;;
75542;SDS011;64129;53.508;10.476;2023-09-12T09:19:47;41.35;;;25.13;;
75542;SDS011;64129;53.508;10.476;2023-09-12T09:22:16;38.80;;;25.38;;
75542;SDS011;64129;53.508;10.476;2023-09-12T09:24:45;37.30;;;23.60;;
75542;SDS011;64129;53.508;10.476;2023-09-12T09:27:16;36.85;;;24.70;;
75542;SDS011;64129;53.508;10.476;2023-09-12T09:30:01;37.42;;;23.52;;
75542;SDS011;64129;53.508;10.476;2023-09-12T09:32:36;40.20;;;24.88;;
75542;SDS011;64129;53.508;10.476;2023-09-12T09:35:06;29.50;;;20.55;;
75542;SDS011;64129;53.508;10.476;2023-09-12T09:37:44;32.05;;;22.73;;
75542;SDS011;64129;53.508;10.476;2023-09-12T09:40:15;29.20;;;20.60;;
75542;SDS011;64129;53.508;10.476;2023-09-12T09:42:53;28.40;;;21.48;;
75542;SDS011;64129;53.508;10.476;2023-09-12T09:45:30;28.13;;;21.80;;
75542;SDS011;64129;53.508;10.476;2023-09-12T09:48:04;30.42;;;20.85;;
75542;SDS011;64129;53.508;10.476;2023-09-12T09:50:47;29.25;;;20.98;;
75542;SDS011;64129;53.508;10.476;2023-09-12T09:53:30;28.17;;;19.17;;
75542;SDS011;64129;53.508;10.476;2023-09-12T09:58:56;33.83;;;21.95;;
75542;SDS011;64129;53.508;10.476;2023-09-12T10:01:35;30.73;;;20.98;;
75542;SDS011;64129;53.508;10.476;2023-09-12T10:04:03;29.95;;;21.63;;
75542;SDS011;64129;53.508;10.476;2023-09-12T10:06:34;28.27;;;21.33;;
75542;SDS011;64129;53.508;10.476;2023-09-12T10:09:11;31.38;;;24.10;;
75542;SDS011;64129;53.508;10.476;2023-09-12T10:11:46;29.77;;;21.77;;
75542;SDS011;64129;53.508;10.476;2023-09-12T10:14:23;29.92;;;20.90;;
75542;SDS011;64129;53.508;10.476;2023-09-12T10:17:08;28.58;;;21.30;;
75542;SDS011;64129;53.508;10.476;2023-09-12T10:19:51;30.40;;;22.30;;
75542;SDS011;64129;53.508;10.476;2023-09-12T10:25:25;29.55;;;21.73;;
75542;SDS011;64129;53.508;10.476;2023-09-12T10:27:56;30.80;;;21.70;;
75542;SDS011;64129;53.508;10.476;2023-09-12T10:30:42;34.58;;;25.52;;
75542;SDS011;64129;53.508;10.476;2023-09-12T10:33:16;29.45;;;21.60;;
75542;SDS011;64129;53.508;10.476;2023-09-12T10:35:43;34.70;;;22.38;;
75542;SDS011;64129;53.508;10.476;2023-09-12T10:38:15;33.55;;;24.13;;
75542;SDS011;64129;53.508;10.476;2023-09-12T10:41:01;29.30;;;22.75;;
75542;SDS011;64129;53.508;10.476;2023-09-12T10:43:33;31.92;;;23.08;;
75542;SDS011;64129;53.508;10.476;2023-09-12T10:46:11;31.88;;;24.83;;
75542;SDS011;64129;53.508;10.476;2023-09-12T10:48:38;28.80;;;22.98;;
75542;SDS011;64129;53.508;10.476;2023-09-12T10:51:10;30.88;;;21.40;;
75542;SDS011;64129;53.508;10.476;2023-09-12T10:53:49;30.58;;;21.27;;
75542;SDS011;64129;53.508;10.476;2023-09-12T10:56:23;29.95;;;23.02;;
75542;SDS011;64129;53.508;10.476;2023-09-12T11:01:42;29.58;;;21.83;;
75542;SDS011;64129;53.508;10.476;2023-09-12T11:06:52;28.55;;;20.75;;
75542;SDS011;64129;53.508;10.476;2023-09-12T11:09:25;28.67;;;21.02;;
75542;SDS011;64129;53.508;10.476;2023-09-12T11:14:29;32.05;;;22.05;;
75542;SDS011;64129;53.508;10.476;2023-09-12T11:19:47;34.47;;;24.00;;
75542;SDS011;64129;53.508;10.476;2023-09-12T11:22:25;36.97;;;23.08;;
75542;SDS011;64129;53.508;10.476;2023-09-12T11:25:04;30.98;;;22.67;;
75542;SDS011;64129;53.508;10.476;2023-09-12T11:30:25;30.05;;;20.88;;
75542;SDS011;64129;53.508;10.476;2023-09-12T11:32:57;35.03;;;25.20;;
75542;SDS011;64129;53.508;10.476;2023-09-12T11:35:28;29.80;;;21.55;;
75542;SDS011;64129;53.508;10.476;2023-09-12T11:38:03;36.75;;;26.08;;
75542;SDS011;64129;53.508;10.476;2023-09-12T11:43:00;31.65;;;21.48;;
75542;SDS011;64129;53.508;10.476;2023-09-12T11:45:30;25.25;;;19.83;;
75542;SDS011;64129;53.508;10.476;2023-09-12T11:48:02;30.30;;;22.00;;
75542;SDS011;64129;53.508;10.476;2023-09-12T11:50:37;25.45;;;19.13;;
75542;SDS011;64129;53.508;10.476;2023-09-12T11:53:06;29.27;;;21.52;;
75542;SDS011;64129;53.508;10.476;2023-09-12T11:55:44;29.33;;;22.40;;
75542;SDS011;64129;53.508;10.476;2023-09-12T11:58:19;29.70;;;21.67;;
75542;SDS011;64129;53.508;10.476;2023-09-12T12:00:51;27.25;;;20.27;;
75542;SDS011;64129;53.508;10.476;2023-09-12T12:03:38;23.65;;;18.92;;
75542;SDS011;64129;53.508;10.476;2023-09-12T12:06:11;24.38;;;19.17;;
75542;SDS011;64129;53.508;10.476;2023-09-12T12:08:38;21.88;;;17.67;;
75542;SDS011;64129;53.508;10.476;2023-09-12T12:11:06;19.92;;;16.60;;
75542;SDS011;64129;53.508;10.476;2023-09-12T12:16:18;21.67;;;16.40;;
75542;SDS011;64129;53.508;10.476;2023-09-12T12:18:45;21.63;;;17.27;;
75542;SDS011;64129;53.508;10.476;2023-09-12T12:21:16;20.40;;;16.80;;
75542;SDS011;64129;53.508;10.476;2023-09-12T12:24:02;21.13;;;16.48;;
75542;SDS011;64129;53.508;10.476;2023-09-12T12:26:33;21.02;;;16.85;;
75542;SDS011;64129;53.508;10.476;2023-09-12T12:29:01;16.67;;;13.80;;
75542;SDS011;64129;53.508;10.476;2023-09-12T12:31:35;20.13;;;16.30;;
75542;SDS011;64129;53.508;10.476;2023-09-12T12:34:06;18.73;;;15.27;;
75542;SDS011;64129;53.508;10.476;2023-09-12T12:36:44;18.98;;;14.65;;
75542;SDS011;64129;53.508;10.476;2023-09-12T12:39:18;18.23;;;14.45;;
75542;SDS011;64129;53.508;10.476;2023-09-12T12:41:51;19.92;;;14.05;;
75542;SDS011;64129;53.508;10.476;2023-09-12T12:44:32;18.30;;;15.15;;
75542;SDS011;64129;53.508;10.476;2023-09-12T12:47:05;15.85;;;12.90;;
75542;SDS011;64129;53.508;10.476;2023-09-12T12:49:38;16.75;;;13.95;;
75542;SDS011;64129;53.508;10.476;2023-09-12T12:52:16;16.95;;;15.15;;
75542;SDS011;64129;53.508;10.476;2023-09-12T12:54:47;16.35;;;14.38;;
75542;SDS011;64129;53.508;10.476;2023-09-12T12:57:20;16.08;;;13.95;;
75542;SDS011;64129;53.508;10.476;2023-09-12T12:59:58;14.88;;;13.27;;
75542;SDS011;64129;53.508;10.476;2023-09-12T13:02:42;15.07;;;13.20;;
75542;SDS011;64129;53.508;10.476;2023-09-12T13:05:25;13.90;;;11.85;;
75542;SDS011;64129;53.508;10.476;2023-09-12T13:08:01;14.40;;;12.15;;
75542;SDS011;64129;53.508;10.476;2023-09-12T13:10:40;14.48;;;12.18;;
75542;SDS011;64129;53.508;10.476;2023-09-12T13:13:09;15.45;;;12.90;;
75542;SDS011;64129;53.508;10.476;2023-09-12T13:15:47;13.85;;;12.15;;
75542;SDS011;64129;53.508;10.476;2023-09-12T13:18:14;13.25;;;11.85;;
75542;SDS011;64129;53.508;10.476;2023-09-12T13:20:41;12.75;;;11.25;;
75542;SDS011;64129;53.508;10.476;2023-09-12T13:23:07;13.40;;;12.00;;
75542;SDS011;64129;53.508;10.476;2023-09-12T13:25:35;14.00;;;11.35;;
75542;SDS011;64129;53.508;10.476;2023-09-12T13:28:07;12.82;;;11.27;;
75542;SDS011;64129;53.508;10.476;2023-09-12T13:30:41;13.00;;;11.50;;
75542;SDS011;64129;53.508;10.476;2023-09-12T13:33:08;12.88;;;10.95;;
75542;SDS011;64129;53.508;10.476;2023-09-12T13:35:43;11.85;;;10.65;;
75542;SDS011;64129;53.508;10.476;2023-09-12T13:38:17;14.75;;;11.65;;
75542;SDS011;64129;53.508;10.476;2023-09-12T13:40:55;13.70;;;11.13;;
75542;SDS011;64129;53.508;10.476;2023-09-12T13:43:26;11.95;;;10.63;;
75542;SDS011;64129;53.508;10.476;2023-09-12T13:46:04;12.02;;;10.82;;
75542;SDS011;64129;53.508;10.476;2023-09-12T13:48:32;12.18;;;10.52;;
75542;SDS011;64129;53.508;10.476;2023-09-12T13:50:59;11.30;;;10.10;;
75542;SDS011;64129;53.508;10.476;2023-09-12T13:53:26;12.57;;;10.63;;
75542;SDS011;64129;53.508;10.476;2023-09-12T13:55:55;11.93;;;10.35;;
75542;SDS011;64129;53.508;10.476;2023-09-12T13:58:28;10.23;;;9.02;;
75542;SDS011;64129;53.508;10.476;2023-09-12T14:01:11;9.52;;;8.57;;
75542;SDS011;64129;53.508;10.476;2023-09-12T14:03:52;8.43;;;7.63;;
75542;SDS011;64129;53.508;10.476;2023-09-12T14:06:26;10.63;;;8.32;;
75542;SDS011;64129;53.508;10.476;2023-09-12T14:08:57;9.20;;;8.27;;
75542;SDS011;64129;53.508;10.476;2023-09-12T14:11:24;10.25;;;9.18;;
75542;SDS011;64129;53.508;10.476;2023-09-12T14:13:59;9.93;;;8.60;;
75542;SDS011;64129;53.508;10.476;2023-09-12T14:16:36;11.02;;;9.95;;
75542;SDS011;64129;53.508;10.476;2023-09-12T14:19:07;11.63;;;10.38;;
75542;SDS011;64129;53.508;10.476;2023-09-12T14:21:37;10.13;;;9.00;;
75542;SDS011;64129;53.508;10.476;2023-09-12T14:24:05;9.98;;;8.88;;
75542;SDS011;64129;53.508;10.476;2023-09-12T14:26:35;11.70;;;10.05;;
75542;SDS011;64129;53.508;10.476;2023-09-12T14:29:04;10.50;;;9.40;;
75542;SDS011;64129;53.508;10.476;2023-09-12T14:31:34;10.65;;;9.55;;
75542;SDS011;64129;53.508;10.476;2023-09-12T14:34:06;10.25;;;9.07;;
75542;SDS011;64129;53.508;10.476;2023-09-12T14:36:56;10.98;;;9.10;;
75542;SDS011;64129;53.508;10.476;2023-09-12T14:39:24;10.23;;;8.70;;
75542;SDS011;64129;53.508;10.476;2023-09-12T14:41:57;11.07;;;9.85;;
75542;SDS011;64129;53.508;10.476;2023-09-12T14:44:24;11.25;;;9.68;;
75542;SDS011;64129;53.508;10.476;2023-09-12T14:46:55;10.40;;;9.32;;
75542;SDS011;64129;53.508;10.476;2023-09-12T14:49:25;10.23;;;9.23;;
75542;SDS011;64129;53.508;10.476;2023-09-12T14:51:56;12.20;;;9.43;;
75542;SDS011;64129;53.508;10.476;2023-09-12T14:54:30;10.90;;;9.68;;
75542;SDS011;64129;53.508;10.476;2023-09-12T14:56:57;10.48;;;8.82;;
75542;SDS011;64129;53.508;10.476;2023-09-12T14:59:28;10.10;;;8.65;;
75542;SDS011;64129;53.508;10.476;2023-09-12T15:01:57;9.77;;;8.77;;
75542;SDS011;64129;53.508;10.476;2023-09-12T15:04:29;9.45;;;7.28;;
75542;SDS011;64129;53.508;10.476;2023-09-12T15:07:09;9.20;;;8.30;;
75542;SDS011;64129;53.508;10.476;2023-09-12T15:09:37;8.38;;;7.57;;
75542;SDS011;64129;53.508;10.476;2023-09-12T15:12:04;8.32;;;7.20;;
75542;SDS011;64129;53.508;10.476;2023-09-12T15:14:31;8.25;;;7.45;;
75542;SDS011;64129;53.508;10.476;2023-09-12T15:17:04;8.57;;;7.68;;
75542;SDS011;64129;53.508;10.476;2023-09-12T15:19:38;8.63;;;7.82;;
75542;SDS011;64129;53.508;10.476;2023-09-12T15:22:12;8.88;;;7.97;;
75542;SDS011;64129;53.508;10.476;2023-09-12T15:24:40;8.25;;;7.45;;
75542;SDS011;64129;53.508;10.476;2023-09-12T15:27:07;9.93;;;7.72;;
75542;SDS011;64129;53.508;10.476;2023-09-12T15:29:44;8.60;;;6.95;;